sensor_id;sensor_type;location;lat;lon;timestamp;P1;durP1;ratioP1;P2;durP2;ratioP2
68247;SDS011;55064;49.636;12.164;2023-06-26T00:00:57;9.50;;;5.77;;
68247;SDS011;55064;49.636;12.164;2023-06-26T00:03:23;10.13;;;6.10;;
68247;SDS011;55064;49.636;12.164;2023-06-26T00:05:48;10.00;;;6.43;;
68247;SDS011;55064;49.636;12.164;2023-06-26T00:08:16;10.77;;;6.57;;
68247;SDS011;55064;49.636;12.164;2023-06-26T00:10:43;10.80;;;5.97;;
68247;SDS011;55064;49.636;12.164;2023-06-26T00:13:09;9.73;;;6.13;;
68247;SDS011;55064;49.636;12.164;2023-06-26T00:15:39;10.02;;;6.25;;
68247;SDS011;55064;49.636;12.164;2023-06-26T00:18:07;10.00;;;6.28;;
68247;SDS011;55064;49.636;12.164;2023-06-26T00:20:32;10.23;;;6.00;;
68247;SDS011;55064;49.636;12.164;2023-06-26T00:23:04;10.38;;;6.55;;
68247;SDS011;55064;49.636;12.164;2023-06-26T00:25:32;9.75;;;6.03;;
68247;SDS011;55064;49.636;12.164;2023-06-26T00:28:00;10.77;;;6.22;;
68247;SDS011;55064;49.636;12.164;2023-06-26T00:30:26;11.10;;;6.47;;
68247;SDS011;55064;49.636;12.164;2023-06-26T00:32:51;9.83;;;6.47;;
68247;SDS011;55064;49.636;12.164;2023-06-26T00:35:18;9.93;;;6.50;;
68247;SDS011;55064;49.636;12.164;2023-06-26T00:37:45;10.40;;;6.30;;
68247;SDS011;55064;49.636;12.164;2023-06-26T00:40:14;9.57;;;6.40;;
68247;SDS011;55064;49.636;12.164;2023-06-26T00:42:41;10.85;;;6.45;;
68247;SDS011;55064;49.636;12.164;2023-06-26T00:45:06;10.90;;;6.30;;
68247;SDS011;55064;49.636;12.164;2023-06-26T00:47:31;12.45;;;6.55;;
68247;SDS011;55064;49.636;12.164;2023-06-26T00:49:57;10.50;;;6.53;;
68247;SDS011;55064;49.636;12.164;2023-06-26T00:52:23;10.93;;;6.83;;
68247;SDS011;55064;49.636;12.164;2023-06-26T00:54:48;11.00;;;6.65;;
68247;SDS011;55064;49.636;12.164;2023-06-26T00:57:16;10.65;;;6.78;;
68247;SDS011;55064;49.636;12.164;2023-06-26T00:59:42;11.30;;;6.37;;
68247;SDS011;55064;49.636;12.164;2023-06-26T01:02:07;10.52;;;6.30;;
68247;SDS011;55064;49.636;12.164;2023-06-26T01:04:33;9.80;;;6.50;;
68247;SDS011;55064;49.636;12.164;2023-06-26T01:06:59;9.88;;;6.55;;
68247;SDS011;55064;49.636;12.164;2023-06-26T01:09:26;10.43;;;6.72;;
68247;SDS011;55064;49.636;12.164;2023-06-26T01:11:55;10.20;;;6.10;;
68247;SDS011;55064;49.636;12.164;2023-06-26T01:14:23;9.80;;;6.40;;
68247;SDS011;55064;49.636;12.164;2023-06-26T01:16:48;10.55;;;6.00;;
68247;SDS011;55064;49.636;12.164;2023-06-26T01:19:23;10.10;;;6.63;;
68247;SDS011;55064;49.636;12.164;2023-06-26T01:22:00;10.65;;;6.80;;
68247;SDS011;55064;49.636;12.164;2023-06-26T01:24:42;10.43;;;6.50;;
68247;SDS011;55064;49.636;12.164;2023-06-26T01:27:13;10.93;;;6.57;;
68247;SDS011;55064;49.636;12.164;2023-06-26T01:29:40;9.40;;;6.60;;
68247;SDS011;55064;49.636;12.164;2023-06-26T01:32:08;10.73;;;6.70;;
68247;SDS011;55064;49.636;12.164;2023-06-26T01:34:34;12.07;;;7.10;;
68247;SDS011;55064;49.636;12.164;2023-06-26T01:37:00;9.90;;;6.40;;
68247;SDS011;55064;49.636;12.164;2023-06-26T01:39:25;10.00;;;6.47;;
68247;SDS011;55064;49.636;12.164;2023-06-26T01:41:50;12.10;;;7.00;;
68247;SDS011;55064;49.636;12.164;2023-06-26T01:46:48;10.80;;;7.25;;
68247;SDS011;55064;49.636;12.164;2023-06-26T01:54:49;10.45;;;6.90;;
68247;SDS011;55064;49.636;12.164;2023-06-26T01:57:16;13.05;;;6.95;;
68247;SDS011;55064;49.636;12.164;2023-06-26T01:59:44;10.60;;;7.03;;
68247;SDS011;55064;49.636;12.164;2023-06-26T02:02:11;10.87;;;6.70;;
68247;SDS011;55064;49.636;12.164;2023-06-26T02:04:38;10.68;;;6.50;;
68247;SDS011;55064;49.636;12.164;2023-06-26T02:07:04;10.60;;;6.40;;
68247;SDS011;55064;49.636;12.164;2023-06-26T02:09:34;13.07;;;7.03;;
68247;SDS011;55064;49.636;12.164;2023-06-26T02:11:59;11.05;;;6.88;;
68247;SDS011;55064;49.636;12.164;2023-06-26T02:14:25;11.77;;;6.80;;
68247;SDS011;55064;49.636;12.164;2023-06-26T02:16:50;12.27;;;6.80;;
68247;SDS011;55064;49.636;12.164;2023-06-26T02:19:18;11.10;;;7.07;;
68247;SDS011;55064;49.636;12.164;2023-06-26T02:21:46;11.55;;;7.32;;
68247;SDS011;55064;49.636;12.164;2023-06-26T02:24:20;13.23;;;6.83;;
68247;SDS011;55064;49.636;12.164;2023-06-26T02:26:45;10.30;;;7.03;;
68247;SDS011;55064;49.636;12.164;2023-06-26T02:29:12;10.80;;;7.13;;
68247;SDS011;55064;49.636;12.164;2023-06-26T02:31:37;11.77;;;6.90;;
68247;SDS011;55064;49.636;12.164;2023-06-26T02:34:03;11.73;;;6.87;;
68247;SDS011;55064;49.636;12.164;2023-06-26T02:36:29;12.63;;;7.17;;
68247;SDS011;55064;49.636;12.164;2023-06-26T02:38:54;10.20;;;6.75;;
68247;SDS011;55064;49.636;12.164;2023-06-26T02:41:22;13.30;;;7.40;;
68247;SDS011;55064;49.636;12.164;2023-06-26T02:43:47;12.23;;;6.65;;
68247;SDS011;55064;49.636;12.164;2023-06-26T02:46:13;11.07;;;6.77;;
68247;SDS011;55064;49.636;12.164;2023-06-26T02:48:43;11.55;;;6.88;;
68247;SDS011;55064;49.636;12.164;2023-06-26T02:51:08;10.43;;;6.38;;
68247;SDS011;55064;49.636;12.164;2023-06-26T02:53:35;11.27;;;6.47;;
68247;SDS011;55064;49.636;12.164;2023-06-26T02:56:01;10.73;;;6.90;;
68247;SDS011;55064;49.636;12.164;2023-06-26T02:58:27;10.87;;;7.33;;
68247;SDS011;55064;49.636;12.164;2023-06-26T03:00:58;11.53;;;7.10;;
68247;SDS011;55064;49.636;12.164;2023-06-26T03:03:23;11.50;;;7.07;;
68247;SDS011;55064;49.636;12.164;2023-06-26T03:05:50;11.20;;;6.60;;
68247;SDS011;55064;49.636;12.164;2023-06-26T03:08:15;11.53;;;7.00;;
68247;SDS011;55064;49.636;12.164;2023-06-26T03:10:43;11.68;;;7.35;;
68247;SDS011;55064;49.636;12.164;2023-06-26T03:13:10;10.35;;;6.80;;
68247;SDS011;55064;49.636;12.164;2023-06-26T03:15:35;12.77;;;7.40;;
68247;SDS011;55064;49.636;12.164;2023-06-26T03:18:00;12.27;;;6.93;;
68247;SDS011;55064;49.636;12.164;2023-06-26T03:20:26;10.63;;;6.80;;
68247;SDS011;55064;49.636;12.164;2023-06-26T03:22:52;11.30;;;7.30;;
68247;SDS011;55064;49.636;12.164;2023-06-26T03:25:18;11.70;;;7.30;;
68247;SDS011;55064;49.636;12.164;2023-06-26T03:27:44;11.70;;;7.32;;
68247;SDS011;55064;49.636;12.164;2023-06-26T03:30:09;12.77;;;7.93;;
68247;SDS011;55064;49.636;12.164;2023-06-26T03:32:36;11.77;;;7.50;;
68247;SDS011;55064;49.636;12.164;2023-06-26T03:35:01;14.23;;;7.57;;
68247;SDS011;55064;49.636;12.164;2023-06-26T03:37:28;11.27;;;7.22;;
68247;SDS011;55064;49.636;12.164;2023-06-26T03:39:53;10.77;;;7.03;;
68247;SDS011;55064;49.636;12.164;2023-06-26T03:42:19;11.57;;;7.32;;
68247;SDS011;55064;49.636;12.164;2023-06-26T03:44:45;11.63;;;7.10;;
68247;SDS011;55064;49.636;12.164;2023-06-26T03:47:10;11.13;;;7.20;;
68247;SDS011;55064;49.636;12.164;2023-06-26T03:49:36;10.83;;;6.80;;
68247;SDS011;55064;49.636;12.164;2023-06-26T03:52:01;11.53;;;7.07;;
68247;SDS011;55064;49.636;12.164;2023-06-26T03:54:27;12.27;;;7.20;;
68247;SDS011;55064;49.636;12.164;2023-06-26T03:56:52;10.73;;;6.90;;
68247;SDS011;55064;49.636;12.164;2023-06-26T03:59:17;13.52;;;7.47;;
68247;SDS011;55064;49.636;12.164;2023-06-26T04:01:43;10.67;;;6.70;;
68247;SDS011;55064;49.636;12.164;2023-06-26T04:04:08;11.83;;;7.17;;
68247;SDS011;55064;49.636;12.164;2023-06-26T04:06:35;11.37;;;6.73;;
68247;SDS011;55064;49.636;12.164;2023-06-26T04:09:00;10.52;;;7.03;;
68247;SDS011;55064;49.636;12.164;2023-06-26T04:11:25;10.77;;;7.10;;
68247;SDS011;55064;49.636;12.164;2023-06-26T04:13:51;11.00;;;7.40;;
68247;SDS011;55064;49.636;12.164;2023-06-26T04:16:18;10.73;;;7.10;;
68247;SDS011;55064;49.636;12.164;2023-06-26T04:18:45;13.15;;;7.18;;
68247;SDS011;55064;49.636;12.164;2023-06-26T04:21:11;12.07;;;7.87;;
68247;SDS011;55064;49.636;12.164;2023-06-26T04:23:39;12.93;;;8.40;;
68247;SDS011;55064;49.636;12.164;2023-06-26T04:26:05;11.35;;;8.00;;
68247;SDS011;55064;49.636;12.164;2023-06-26T04:28:34;12.23;;;8.07;;
68247;SDS011;55064;49.636;12.164;2023-06-26T04:31:01;11.00;;;7.28;;
68247;SDS011;55064;49.636;12.164;2023-06-26T04:33:28;11.07;;;7.57;;
68247;SDS011;55064;49.636;12.164;2023-06-26T04:35:54;11.57;;;8.00;;
68247;SDS011;55064;49.636;12.164;2023-06-26T04:38:19;12.47;;;7.70;;
68247;SDS011;55064;49.636;12.164;2023-06-26T04:40:48;11.52;;;7.88;;
68247;SDS011;55064;49.636;12.164;2023-06-26T04:43:14;11.32;;;7.68;;
68247;SDS011;55064;49.636;12.164;2023-06-26T04:45:39;11.07;;;7.60;;
68247;SDS011;55064;49.636;12.164;2023-06-26T04:48:05;12.07;;;8.02;;
68247;SDS011;55064;49.636;12.164;2023-06-26T04:50:36;12.10;;;7.87;;
68247;SDS011;55064;49.636;12.164;2023-06-26T04:53:02;11.65;;;7.50;;
68247;SDS011;55064;49.636;12.164;2023-06-26T04:55:28;13.40;;;7.72;;
68247;SDS011;55064;49.636;12.164;2023-06-26T04:57:54;11.13;;;7.60;;
68247;SDS011;55064;49.636;12.164;2023-06-26T05:00:19;11.48;;;8.15;;
68247;SDS011;55064;49.636;12.164;2023-06-26T05:02:47;13.25;;;8.40;;
68247;SDS011;55064;49.636;12.164;2023-06-26T05:05:13;12.07;;;8.30;;
68247;SDS011;55064;49.636;12.164;2023-06-26T05:07:52;12.05;;;8.57;;
68247;SDS011;55064;49.636;12.164;2023-06-26T05:16:26;11.43;;;8.20;;
68247;SDS011;55064;49.636;12.164;2023-06-26T05:18:53;11.07;;;7.67;;
68247;SDS011;55064;49.636;12.164;2023-06-26T05:21:19;13.63;;;9.05;;
68247;SDS011;55064;49.636;12.164;2023-06-26T05:23:46;10.90;;;7.80;;
68247;SDS011;55064;49.636;12.164;2023-06-26T05:26:12;12.25;;;8.27;;
68247;SDS011;55064;49.636;12.164;2023-06-26T05:28:43;12.55;;;7.95;;
68247;SDS011;55064;49.636;12.164;2023-06-26T05:31:19;12.50;;;7.83;;
68247;SDS011;55064;49.636;12.164;2023-06-26T05:33:47;11.13;;;7.47;;
68247;SDS011;55064;49.636;12.164;2023-06-26T05:36:15;12.10;;;7.70;;
68247;SDS011;55064;49.636;12.164;2023-06-26T05:38:54;12.18;;;7.90;;
68247;SDS011;55064;49.636;12.164;2023-06-26T05:44:43;14.50;;;8.00;;
68247;SDS011;55064;49.636;12.164;2023-06-26T05:50:22;12.47;;;7.43;;
68247;SDS011;55064;49.636;12.164;2023-06-26T05:52:48;13.70;;;8.38;;
68247;SDS011;55064;49.636;12.164;2023-06-26T05:55:14;11.95;;;7.43;;
68247;SDS011;55064;49.636;12.164;2023-06-26T05:57:39;11.43;;;8.00;;
68247;SDS011;55064;49.636;12.164;2023-06-26T06:00:10;15.43;;;8.80;;
68247;SDS011;55064;49.636;12.164;2023-06-26T06:02:37;13.20;;;7.97;;
68247;SDS011;55064;49.636;12.164;2023-06-26T06:05:03;12.63;;;8.52;;
68247;SDS011;55064;49.636;12.164;2023-06-26T06:07:30;12.53;;;8.00;;
68247;SDS011;55064;49.636;12.164;2023-06-26T06:09:56;12.23;;;7.80;;
68247;SDS011;55064;49.636;12.164;2023-06-26T06:12:24;11.05;;;7.82;;
68247;SDS011;55064;49.636;12.164;2023-06-26T06:14:52;11.77;;;7.60;;
68247;SDS011;55064;49.636;12.164;2023-06-26T06:17:21;11.77;;;7.30;;
68247;SDS011;55064;49.636;12.164;2023-06-26T06:19:48;11.25;;;7.68;;
68247;SDS011;55064;49.636;12.164;2023-06-26T06:22:14;10.95;;;7.10;;
68247;SDS011;55064;49.636;12.164;2023-06-26T06:24:41;11.88;;;7.05;;
68247;SDS011;55064;49.636;12.164;2023-06-26T06:27:06;10.63;;;7.10;;
68247;SDS011;55064;49.636;12.164;2023-06-26T06:29:32;10.10;;;7.07;;
68247;SDS011;55064;49.636;12.164;2023-06-26T06:32:03;10.48;;;6.60;;
68247;SDS011;55064;49.636;12.164;2023-06-26T06:34:29;10.38;;;6.95;;
68247;SDS011;55064;49.636;12.164;2023-06-26T06:36:54;12.37;;;7.23;;
68247;SDS011;55064;49.636;12.164;2023-06-26T06:39:19;10.97;;;6.60;;
68247;SDS011;55064;49.636;12.164;2023-06-26T06:41:45;11.97;;;6.77;;
68247;SDS011;55064;49.636;12.164;2023-06-26T06:44:10;11.13;;;7.20;;
68247;SDS011;55064;49.636;12.164;2023-06-26T06:46:36;11.43;;;6.73;;
68247;SDS011;55064;49.636;12.164;2023-06-26T06:49:02;10.45;;;6.47;;
68247;SDS011;55064;49.636;12.164;2023-06-26T06:51:30;11.07;;;6.73;;
68247;SDS011;55064;49.636;12.164;2023-06-26T06:53:57;12.60;;;6.65;;
68247;SDS011;55064;49.636;12.164;2023-06-26T06:56:25;10.57;;;6.57;;
68247;SDS011;55064;49.636;12.164;2023-06-26T06:58:51;10.13;;;6.10;;
68247;SDS011;55064;49.636;12.164;2023-06-26T07:01:16;11.37;;;6.77;;
68247;SDS011;55064;49.636;12.164;2023-06-26T07:03:42;9.32;;;6.00;;
68247;SDS011;55064;49.636;12.164;2023-06-26T07:06:10;13.10;;;6.30;;
68247;SDS011;55064;49.636;12.164;2023-06-26T07:08:36;10.27;;;6.25;;
68247;SDS011;55064;49.636;12.164;2023-06-26T07:11:01;10.43;;;6.27;;
68247;SDS011;55064;49.636;12.164;2023-06-26T07:13:29;9.57;;;6.45;;
68247;SDS011;55064;49.636;12.164;2023-06-26T07:15:57;13.60;;;7.55;;
68247;SDS011;55064;49.636;12.164;2023-06-26T07:18:22;10.90;;;6.27;;
68247;SDS011;55064;49.636;12.164;2023-06-26T07:20:48;10.90;;;6.33;;
68247;SDS011;55064;49.636;12.164;2023-06-26T07:23:19;9.45;;;6.32;;
68247;SDS011;55064;49.636;12.164;2023-06-26T07:25:44;9.95;;;6.18;;
68247;SDS011;55064;49.636;12.164;2023-06-26T07:28:11;9.57;;;6.47;;
68247;SDS011;55064;49.636;12.164;2023-06-26T07:30:37;9.68;;;6.18;;
68247;SDS011;55064;49.636;12.164;2023-06-26T07:33:10;10.17;;;6.03;;
68247;SDS011;55064;49.636;12.164;2023-06-26T07:35:35;10.20;;;6.60;;
68247;SDS011;55064;49.636;12.164;2023-06-26T07:38:01;10.90;;;6.50;;
68247;SDS011;55064;49.636;12.164;2023-06-26T07:40:26;11.05;;;6.35;;
68247;SDS011;55064;49.636;12.164;2023-06-26T07:42:54;10.17;;;5.87;;
68247;SDS011;55064;49.636;12.164;2023-06-26T07:45:21;11.63;;;6.35;;
68247;SDS011;55064;49.636;12.164;2023-06-26T07:47:46;9.45;;;6.07;;
68247;SDS011;55064;49.636;12.164;2023-06-26T07:50:14;12.80;;;6.57;;
68247;SDS011;55064;49.636;12.164;2023-06-26T07:52:44;12.57;;;6.28;;
68247;SDS011;55064;49.636;12.164;2023-06-26T07:55:10;9.30;;;5.90;;
68247;SDS011;55064;49.636;12.164;2023-06-26T07:57:40;9.00;;;5.77;;
68247;SDS011;55064;49.636;12.164;2023-06-26T08:00:06;9.93;;;6.00;;
68247;SDS011;55064;49.636;12.164;2023-06-26T08:02:38;9.20;;;5.80;;
68247;SDS011;55064;49.636;12.164;2023-06-26T08:05:06;9.85;;;6.25;;
68247;SDS011;55064;49.636;12.164;2023-06-26T08:07:37;9.52;;;6.25;;
68247;SDS011;55064;49.636;12.164;2023-06-26T08:10:02;9.97;;;6.20;;
68247;SDS011;55064;49.636;12.164;2023-06-26T08:12:28;9.93;;;6.38;;
68247;SDS011;55064;49.636;12.164;2023-06-26T08:14:54;9.70;;;6.30;;
68247;SDS011;55064;49.636;12.164;2023-06-26T08:17:21;9.00;;;5.80;;
68247;SDS011;55064;49.636;12.164;2023-06-26T08:19:48;9.85;;;6.50;;
68247;SDS011;55064;49.636;12.164;2023-06-26T08:22:13;10.87;;;6.43;;
68247;SDS011;55064;49.636;12.164;2023-06-26T08:24:40;13.77;;;6.60;;
68247;SDS011;55064;49.636;12.164;2023-06-26T08:27:05;10.13;;;5.47;;
68247;SDS011;55064;49.636;12.164;2023-06-26T08:29:32;9.23;;;5.90;;
68247;SDS011;55064;49.636;12.164;2023-06-26T08:31:57;10.37;;;6.30;;
68247;SDS011;55064;49.636;12.164;2023-06-26T08:34:24;10.27;;;5.90;;
68247;SDS011;55064;49.636;12.164;2023-06-26T08:36:49;10.80;;;6.30;;
68247;SDS011;55064;49.636;12.164;2023-06-26T08:39:15;9.20;;;6.45;;
68247;SDS011;55064;49.636;12.164;2023-06-26T08:41:40;9.87;;;6.00;;
68247;SDS011;55064;49.636;12.164;2023-06-26T08:44:08;11.48;;;6.47;;
68247;SDS011;55064;49.636;12.164;2023-06-26T08:46:34;9.63;;;6.30;;
68247;SDS011;55064;49.636;12.164;2023-06-26T08:49:01;9.65;;;6.65;;
68247;SDS011;55064;49.636;12.164;2023-06-26T08:51:35;9.30;;;6.70;;
68247;SDS011;55064;49.636;12.164;2023-06-26T08:54:02;9.60;;;6.20;;
68247;SDS011;55064;49.636;12.164;2023-06-26T08:56:37;10.63;;;6.50;;
68247;SDS011;55064;49.636;12.164;2023-06-26T08:59:09;10.95;;;6.60;;
68247;SDS011;55064;49.636;12.164;2023-06-26T09:01:36;11.32;;;6.90;;
68247;SDS011;55064;49.636;12.164;2023-06-26T09:04:03;9.35;;;6.55;;
68247;SDS011;55064;49.636;12.164;2023-06-26T09:06:29;10.83;;;6.80;;
68247;SDS011;55064;49.636;12.164;2023-06-26T09:08:55;10.98;;;6.95;;
68247;SDS011;55064;49.636;12.164;2023-06-26T09:11:22;10.27;;;6.13;;
68247;SDS011;55064;49.636;12.164;2023-06-26T09:13:49;11.25;;;6.85;;
68247;SDS011;55064;49.636;12.164;2023-06-26T09:16:18;11.52;;;6.82;;
68247;SDS011;55064;49.636;12.164;2023-06-26T09:18:55;10.23;;;6.60;;
68247;SDS011;55064;49.636;12.164;2023-06-26T09:21:21;10.60;;;6.68;;
68247;SDS011;55064;49.636;12.164;2023-06-26T09:23:47;10.00;;;6.55;;
68247;SDS011;55064;49.636;12.164;2023-06-26T09:26:13;11.70;;;6.60;;
68247;SDS011;55064;49.636;12.164;2023-06-26T09:28:42;9.88;;;7.10;;
68247;SDS011;55064;49.636;12.164;2023-06-26T09:31:08;12.20;;;8.13;;
68247;SDS011;55064;49.636;12.164;2023-06-26T09:33:36;11.02;;;7.25;;
68247;SDS011;55064;49.636;12.164;2023-06-26T09:36:06;10.88;;;7.10;;
68247;SDS011;55064;49.636;12.164;2023-06-26T09:38:34;10.40;;;7.10;;
68247;SDS011;55064;49.636;12.164;2023-06-26T09:41:00;11.20;;;7.20;;
68247;SDS011;55064;49.636;12.164;2023-06-26T09:43:27;11.15;;;7.18;;
68247;SDS011;55064;49.636;12.164;2023-06-26T09:45:52;10.50;;;6.80;;
68247;SDS011;55064;49.636;12.164;2023-06-26T09:48:19;10.77;;;7.18;;
68247;SDS011;55064;49.636;12.164;2023-06-26T09:50:48;13.45;;;7.00;;
68247;SDS011;55064;49.636;12.164;2023-06-26T09:53:15;9.93;;;7.20;;
68247;SDS011;55064;49.636;12.164;2023-06-26T09:55:43;11.77;;;7.07;;
68247;SDS011;55064;49.636;12.164;2023-06-26T09:58:10;15.40;;;7.38;;
68247;SDS011;55064;49.636;12.164;2023-06-26T10:00:39;11.02;;;7.53;;
68247;SDS011;55064;49.636;12.164;2023-06-26T10:03:05;10.37;;;6.93;;
68247;SDS011;55064;49.636;12.164;2023-06-26T10:05:31;9.80;;;7.10;;
68247;SDS011;55064;49.636;12.164;2023-06-26T10:07:57;11.90;;;7.10;;
68247;SDS011;55064;49.636;12.164;2023-06-26T10:10:23;10.75;;;7.53;;
68247;SDS011;55064;49.636;12.164;2023-06-26T10:12:51;10.00;;;7.32;;
68247;SDS011;55064;49.636;12.164;2023-06-26T10:15:23;9.75;;;6.30;;
68247;SDS011;55064;49.636;12.164;2023-06-26T10:17:53;9.27;;;6.65;;
68247;SDS011;55064;49.636;12.164;2023-06-26T10:20:23;9.50;;;6.80;;
68247;SDS011;55064;49.636;12.164;2023-06-26T10:22:51;11.70;;;7.43;;
68247;SDS011;55064;49.636;12.164;2023-06-26T10:25:20;9.80;;;6.85;;
68247;SDS011;55064;49.636;12.164;2023-06-26T10:27:54;9.68;;;7.10;;
68247;SDS011;55064;49.636;12.164;2023-06-26T10:30:24;11.43;;;7.13;;
68247;SDS011;55064;49.636;12.164;2023-06-26T10:32:55;9.70;;;6.73;;
68247;SDS011;55064;49.636;12.164;2023-06-26T10:35:21;11.63;;;6.75;;
68247;SDS011;55064;49.636;12.164;2023-06-26T10:37:47;9.55;;;6.70;;
68247;SDS011;55064;49.636;12.164;2023-06-26T10:40:14;9.27;;;6.78;;
68247;SDS011;55064;49.636;12.164;2023-06-26T10:42:46;9.33;;;6.13;;
68247;SDS011;55064;49.636;12.164;2023-06-26T10:45:15;9.57;;;6.65;;
68247;SDS011;55064;49.636;12.164;2023-06-26T10:47:47;9.80;;;6.70;;
68247;SDS011;55064;49.636;12.164;2023-06-26T10:50:20;10.50;;;6.80;;
68247;SDS011;55064;49.636;12.164;2023-06-26T10:55:50;8.88;;;6.75;;
68247;SDS011;55064;49.636;12.164;2023-06-26T11:06:30;8.80;;;6.20;;
68247;SDS011;55064;49.636;12.164;2023-06-26T11:14:24;14.20;;;6.50;;
68247;SDS011;55064;49.636;12.164;2023-06-26T11:16:51;9.98;;;6.18;;
68247;SDS011;55064;49.636;12.164;2023-06-26T11:19:17;9.50;;;5.95;;
68247;SDS011;55064;49.636;12.164;2023-06-26T11:21:43;9.40;;;6.10;;
68247;SDS011;55064;49.636;12.164;2023-06-26T11:24:11;9.07;;;6.50;;
68247;SDS011;55064;49.636;12.164;2023-06-26T11:26:38;10.70;;;6.57;;
68247;SDS011;55064;49.636;12.164;2023-06-26T11:29:08;10.43;;;6.57;;
68247;SDS011;55064;49.636;12.164;2023-06-26T11:31:35;9.77;;;6.30;;
68247;SDS011;55064;49.636;12.164;2023-06-26T11:34:04;10.18;;;6.43;;
68247;SDS011;55064;49.636;12.164;2023-06-26T11:36:36;8.50;;;6.07;;
68247;SDS011;55064;49.636;12.164;2023-06-26T11:39:06;8.90;;;6.40;;
68247;SDS011;55064;49.636;12.164;2023-06-26T11:41:32;9.33;;;6.57;;
68247;SDS011;55064;49.636;12.164;2023-06-26T11:46:27;9.10;;;6.50;;
68247;SDS011;55064;49.636;12.164;2023-06-26T11:48:55;9.68;;;6.57;;
68247;SDS011;55064;49.636;12.164;2023-06-26T11:51:26;9.13;;;6.53;;
68247;SDS011;55064;49.636;12.164;2023-06-26T11:53:53;8.82;;;6.70;;
68247;SDS011;55064;49.636;12.164;2023-06-26T11:56:20;10.57;;;6.50;;
68247;SDS011;55064;49.636;12.164;2023-06-26T12:04:09;10.10;;;6.63;;
68247;SDS011;55064;49.636;12.164;2023-06-26T12:06:36;9.27;;;6.35;;
68247;SDS011;55064;49.636;12.164;2023-06-26T12:09:10;8.35;;;6.10;;
68247;SDS011;55064;49.636;12.164;2023-06-26T12:11:37;11.40;;;7.10;;
68247;SDS011;55064;49.636;12.164;2023-06-26T12:14:05;9.85;;;6.93;;
68247;SDS011;55064;49.636;12.164;2023-06-26T12:16:33;9.77;;;6.60;;
68247;SDS011;55064;49.636;12.164;2023-06-26T12:19:06;9.68;;;6.50;;
68247;SDS011;55064;49.636;12.164;2023-06-26T12:24:13;8.85;;;6.60;;
68247;SDS011;55064;49.636;12.164;2023-06-26T12:26:41;10.88;;;7.35;;
68247;SDS011;55064;49.636;12.164;2023-06-26T12:29:15;9.77;;;6.77;;
68247;SDS011;55064;49.636;12.164;2023-06-26T12:31:53;10.27;;;6.25;;
68247;SDS011;55064;49.636;12.164;2023-06-26T12:34:20;9.88;;;6.43;;
68247;SDS011;55064;49.636;12.164;2023-06-26T12:36:50;9.63;;;6.60;;
68247;SDS011;55064;49.636;12.164;2023-06-26T12:39:17;9.77;;;6.60;;
68247;SDS011;55064;49.636;12.164;2023-06-26T12:44:25;11.35;;;6.40;;
68247;SDS011;55064;49.636;12.164;2023-06-26T12:46:55;11.77;;;7.43;;
68247;SDS011;55064;49.636;12.164;2023-06-26T12:49:39;9.65;;;6.70;;
68247;SDS011;55064;49.636;12.164;2023-06-26T12:52:08;9.88;;;6.93;;
68247;SDS011;55064;49.636;12.164;2023-06-26T12:54:34;10.37;;;6.37;;
68247;SDS011;55064;49.636;12.164;2023-06-26T12:57:01;10.43;;;6.90;;
68247;SDS011;55064;49.636;12.164;2023-06-26T12:59:29;12.90;;;8.02;;
68247;SDS011;55064;49.636;12.164;2023-06-26T13:01:58;9.50;;;6.57;;
68247;SDS011;55064;49.636;12.164;2023-06-26T13:04:27;12.02;;;7.05;;
68247;SDS011;55064;49.636;12.164;2023-06-26T13:06:52;10.87;;;6.60;;
68247;SDS011;55064;49.636;12.164;2023-06-26T13:09:21;9.73;;;6.70;;
68247;SDS011;55064;49.636;12.164;2023-06-26T13:11:49;9.18;;;6.88;;
68247;SDS011;55064;49.636;12.164;2023-06-26T13:14:15;9.02;;;6.25;;
68247;SDS011;55064;49.636;12.164;2023-06-26T13:16:40;9.23;;;7.13;;
68247;SDS011;55064;49.636;12.164;2023-06-26T13:19:08;9.38;;;6.97;;
68247;SDS011;55064;49.636;12.164;2023-06-26T13:21:34;8.85;;;6.45;;
68247;SDS011;55064;49.636;12.164;2023-06-26T13:24:02;9.60;;;6.93;;
68247;SDS011;55064;49.636;12.164;2023-06-26T13:26:29;9.37;;;6.67;;
68247;SDS011;55064;49.636;12.164;2023-06-26T13:28:54;8.68;;;6.13;;
68247;SDS011;55064;49.636;12.164;2023-06-26T13:31:20;13.63;;;6.70;;
68247;SDS011;55064;49.636;12.164;2023-06-26T13:33:46;9.48;;;6.38;;
68247;SDS011;55064;49.636;12.164;2023-06-26T13:36:13;10.70;;;6.75;;
68247;SDS011;55064;49.636;12.164;2023-06-26T13:38:43;10.00;;;6.50;;
68247;SDS011;55064;49.636;12.164;2023-06-26T13:41:09;10.00;;;6.40;;
68247;SDS011;55064;49.636;12.164;2023-06-26T13:43:37;8.90;;;6.55;;
68247;SDS011;55064;49.636;12.164;2023-06-26T13:46:04;9.45;;;7.00;;
68247;SDS011;55064;49.636;12.164;2023-06-26T13:48:29;11.00;;;7.10;;
68247;SDS011;55064;49.636;12.164;2023-06-26T13:50:55;10.02;;;6.40;;
68247;SDS011;55064;49.636;12.164;2023-06-26T13:53:23;9.83;;;6.90;;
68247;SDS011;55064;49.636;12.164;2023-06-26T13:55:52;9.27;;;6.68;;
68247;SDS011;55064;49.636;12.164;2023-06-26T13:58:20;9.43;;;6.77;;
68247;SDS011;55064;49.636;12.164;2023-06-26T14:00:50;9.20;;;6.65;;
68247;SDS011;55064;49.636;12.164;2023-06-26T14:03:15;10.02;;;6.97;;
68247;SDS011;55064;49.636;12.164;2023-06-26T14:05:44;10.90;;;6.50;;
68247;SDS011;55064;49.636;12.164;2023-06-26T14:08:12;9.18;;;6.68;;
68247;SDS011;55064;49.636;12.164;2023-06-26T14:10:39;11.73;;;6.93;;
68247;SDS011;55064;49.636;12.164;2023-06-26T14:13:04;20.77;;;7.03;;
68247;SDS011;55064;49.636;12.164;2023-06-26T14:15:33;19.80;;;7.40;;
68247;SDS011;55064;49.636;12.164;2023-06-26T14:17:59;12.13;;;6.47;;
68247;SDS011;55064;49.636;12.164;2023-06-26T14:20:24;12.75;;;6.60;;
68247;SDS011;55064;49.636;12.164;2023-06-26T14:22:50;10.50;;;6.50;;
68247;SDS011;55064;49.636;12.164;2023-06-26T14:25:17;10.02;;;6.50;;
68247;SDS011;55064;49.636;12.164;2023-06-26T14:27:43;9.13;;;6.40;;
68247;SDS011;55064;49.636;12.164;2023-06-26T14:30:09;10.00;;;6.50;;
68247;SDS011;55064;49.636;12.164;2023-06-26T14:32:35;10.25;;;6.53;;
68247;SDS011;55064;49.636;12.164;2023-06-26T14:35:04;8.75;;;6.25;;
68247;SDS011;55064;49.636;12.164;2023-06-26T14:37:31;8.98;;;5.88;;
68247;SDS011;55064;49.636;12.164;2023-06-26T14:39:56;10.17;;;6.87;;
68247;SDS011;55064;49.636;12.164;2023-06-26T14:42:26;10.25;;;6.40;;
68247;SDS011;55064;49.636;12.164;2023-06-26T14:44:51;9.23;;;6.43;;
68247;SDS011;55064;49.636;12.164;2023-06-26T14:47:17;9.57;;;7.10;;
68247;SDS011;55064;49.636;12.164;2023-06-26T14:49:45;9.05;;;6.18;;
68247;SDS011;55064;49.636;12.164;2023-06-26T14:52:10;9.07;;;6.50;;
68247;SDS011;55064;49.636;12.164;2023-06-26T14:54:36;9.77;;;6.78;;
68247;SDS011;55064;49.636;12.164;2023-06-26T14:57:02;9.70;;;6.13;;
68247;SDS011;55064;49.636;12.164;2023-06-26T14:59:30;8.63;;;6.40;;
68247;SDS011;55064;49.636;12.164;2023-06-26T15:01:55;9.73;;;6.43;;
68247;SDS011;55064;49.636;12.164;2023-06-26T15:04:21;11.30;;;6.17;;
68247;SDS011;55064;49.636;12.164;2023-06-26T15:06:49;12.68;;;6.20;;
68247;SDS011;55064;49.636;12.164;2023-06-26T15:09:14;8.83;;;6.10;;
68247;SDS011;55064;49.636;12.164;2023-06-26T15:11:39;8.60;;;6.30;;
68247;SDS011;55064;49.636;12.164;2023-06-26T15:14:06;13.33;;;6.80;;
68247;SDS011;55064;49.636;12.164;2023-06-26T15:16:31;8.63;;;6.05;;